Time;durP1;ratioP1;P1;durP2;ratioP2;P2;SDS_P1;SDS_P2;PMS_P1;PMS_P2;Temp;Humidity;BMP_temperature;BMP_pressure;BME280_temperature;BME280_humidity;BME280_pressure;Samples;Min_cycle;Max_cycle;Signal;HPM_P1;HPM_P2
2023/04/09 00:01:14;;;;;;;13.02;8.65;;;;;;;7.23;100.00;101215.34;4969574;28;20043;-92
2023/04/09 00:03:46;;;;;;;13.82;9.10;;;;;;;7.33;100.00;101236.19;4984382;28;20074;-93
2023/04/09 00:06:15;;;;;;;14.10;8.80;;;;;;;7.63;100.00;101276.84;4991330;28;20054;-93
2023/04/09 00:08:44;;;;;;;13.95;9.63;;;;;;;7.42;100.00;101252.69;4974091;28;20035;-92
2023/04/09 00:11:12;;;;;;;17.00;10.40;;;;;;;7.64;100.00;101283.00;4991824;28;20094;-92
2023/04/09 00:13:39;;;;;;;14.88;9.32;;;;;;;7.61;100.00;101283.91;4972041;28;20042;-90
2023/04/09 00:16:09;;;;;;;13.75;9.27;;;;;;;7.30;100.00;101219.56;4947092;28;20140;-93
2023/04/09 00:18:36;;;;;;;15.52;9.88;;;;;;;7.64;100.00;101280.34;4979218;28;20043;-92
2023/04/09 00:21:03;;;;;;;22.23;14.25;;;;;;;7.43;100.00;101241.25;4978590;28;20391;-90
2023/04/09 00:23:31;;;;;;;16.92;10.65;;;;;;;7.60;100.00;101276.91;4981291;28;20039;-93
2023/04/09 00:25:57;;;;;;;13.38;9.25;;;;;;;7.56;100.00;101275.22;4972800;28;20042;-90
2023/04/09 00:28:26;;;;;;;14.38;9.52;;;;;;;7.55;100.00;101277.94;4996066;28;20031;-90
2023/04/09 00:30:53;;;;;;;15.82;9.77;;;;;;;7.54;100.00;101276.19;4968348;28;20057;-93
2023/04/09 00:33:20;;;;;;;15.85;10.15;;;;;;;7.27;100.00;101232.78;4964619;28;20106;-92
2023/04/09 00:35:47;;;;;;;15.20;9.40;;;;;;;7.12;100.00;101215.53;4964868;28;20076;-92
2023/04/09 00:38:14;;;;;;;15.07;10.38;;;;;;;7.41;100.00;101265.00;4965034;28;20053;-94
2023/04/09 00:40:42;;;;;;;15.52;10.23;;;;;;;7.08;100.00;101213.88;4982083;28;20047;-91
2023/04/09 00:43:09;;;;;;;16.13;10.38;;;;;;;7.31;100.00;101253.78;4971364;28;20057;-91
2023/04/09 00:45:37;;;;;;;14.38;10.57;;;;;;;7.36;100.00;101254.56;4984201;28;20100;-92
2023/04/09 00:48:07;;;;;;;15.00;10.20;;;;;;;6.81;100.00;101157.34;4979913;28;20126;-91
2023/04/09 00:50:37;;;;;;;17.13;10.80;;;;;;;7.29;100.00;101239.78;4989033;28;20034;-90
2023/04/09 00:53:07;;;;;;;15.88;10.07;;;;;;;7.24;100.00;101223.19;4992984;28;20035;-92
2023/04/09 00:55:34;;;;;;;;;;;;;;;7.46;100.00;101257.00;4975715;28;20043;-89
2023/04/09 00:58:06;;;;;;;16.70;10.68;;;;;;;7.23;100.00;101218.84;4986297;28;19985;-92
2023/04/09 01:00:36;;;;;;;15.20;10.30;;;;;;;7.17;100.00;101211.06;4965536;28;20057;-92
2023/04/09 01:03:05;;;;;;;17.58;10.55;;;;;;;6.92;100.00;101175.56;4978605;28;20109;-93
2023/04/09 01:06:06;;;;;;;15.77;10.35;;;;;;;7.07;100.00;101203.38;4976506;28;20066;-93
2023/04/09 01:09:05;;;;;;;17.83;11.07;;;;;;;7.04;100.00;101204.28;4966405;28;20421;-92
2023/04/09 01:11:45;;;;;;;18.52;10.88;;;;;;;7.21;100.00;101230.31;4961586;28;20038;-93
2023/04/09 01:14:38;;;;;;;15.73;10.60;;;;;;;7.32;100.00;101259.94;4979870;28;20042;-92
2023/04/09 01:17:29;;;;;;;16.33;10.27;;;;;;;7.27;100.00;101262.66;4966754;28;20388;-91
2023/04/09 01:20:08;;;;;;;16.67;10.68;;;;;;;7.21;100.00;101265.41;4961989;28;20038;-90
2023/04/09 01:23:04;;;;;;;16.23;10.63;;;;;;;7.16;100.00;101254.09;4960163;28;20057;-94
2023/04/09 01:26:01;;;;;;;16.27;11.00;;;;;;;7.13;100.00;101255.91;4984993;28;20054;-90
2023/04/09 01:28:34;;;;;;;18.25;10.88;;;;;;;7.01;100.00;101234.19;4985698;28;20050;-91
2023/04/09 01:31:08;;;;;;;18.48;11.32;;;;;;;7.07;100.00;101256.91;4965125;28;20070;-91
2023/04/09 01:33:36;;;;;;;17.67;11.23;;;;;;;7.01;100.00;101247.34;4980957;28;20053;-91
2023/04/09 01:36:08;;;;;;;17.33;10.65;;;;;;;7.01;100.00;101259.66;4985944;28;20035;-90
2023/04/09 01:38:38;;;;;;;17.50;11.20;;;;;;;7.00;100.00;101260.53;4951270;28;20095;-90
2023/04/09 01:41:07;;;;;;;17.70;11.02;;;;;;;6.93;100.00;101251.88;4979927;28;20042;-92
2023/04/09 01:43:43;;;;;;;17.88;11.00;;;;;;;6.76;100.00;101237.31;4967375;28;20117;-92
2023/04/09 01:46:11;;;;;;;17.33;10.98;;;;;;;6.77;100.00;101252.22;4975404;28;20043;-90
2023/04/09 01:48:42;;;;;;;16.40;10.32;;;;;;;6.70;100.00;101248.81;4961846;28;20121;-91
2023/04/09 01:51:13;;;;;;;18.33;11.32;;;;;;;6.62;100.00;101250.69;4984978;28;20066;-93
2023/04/09 01:53:40;;;;;;;17.35;10.75;;;;;;;6.57;100.00;101247.28;4972678;28;20039;-90
2023/04/09 01:56:09;;;;;;;18.35;10.70;;;;;;;6.62;100.00;101256.81;4988978;28;20064;-89
2023/04/09 01:58:40;;;;;;;16.02;10.88;;;;;;;6.54;100.00;101253.47;4962173;28;20031;-86
2023/04/09 02:01:23;;;;;;;17.35;10.82;;;;;;;6.56;100.00;101256.94;4977723;28;20042;-89
2023/04/09 02:03:55;;;;;;;18.23;10.90;;;;;;;6.46;100.00;101249.19;4978833;28;20131;-91
2023/04/09 02:06:37;;;;;;;18.58;11.27;;;;;;;6.46;100.00;101255.34;4978609;28;20043;-91
2023/04/09 02:09:07;;;;;;;19.02;11.18;;;;;;;6.41;100.00;101259.81;4988941;28;20030;-92
2023/04/09 02:11:39;;;;;;;18.63;11.20;;;;;;;6.42;100.00;101260.69;4965135;28;20038;-91
2023/04/09 02:14:07;;;;;;;17.55;11.48;;;;;;;6.39;100.00;101252.84;4975611;28;20039;-89
2023/04/09 02:16:35;;;;;;;17.60;11.05;;;;;;;6.44;100.00;101258.91;4955739;28;20176;-91
2023/04/09 02:19:02;;;;;;;19.17;11.27;;;;;;;6.38;100.00;101256.38;4972032;28;20099;-88
2023/04/09 02:21:31;;;;;;;18.73;11.75;;;;;;;6.43;100.00;101259.81;4994866;28;20050;-88
2023/04/09 02:23:57;;;;;;;17.92;11.05;;;;;;;6.45;100.00;101263.28;4978374;28;20033;-89
2023/04/09 02:26:26;;;;;;;20.70;11.75;;;;;;;6.28;100.00;101239.88;4979145;28;20035;-90
2023/04/09 02:28:58;;;;;;;18.23;11.98;;;;;;;6.45;100.00;101264.16;4978336;28;20062;-89
2023/04/09 02:31:27;;;;;;;18.58;11.88;;;;;;;6.21;100.00;101235.59;4990715;28;20106;-89
2023/04/09 02:33:55;;;;;;;20.40;11.90;;;;;;;6.20;100.00;101247.00;4997394;28;20026;-89
2023/04/09 02:36:21;;;;;;;17.30;11.05;;;;;;;6.20;100.00;101258.38;4971936;28;20051;-92
2023/04/09 02:38:50;;;;;;;20.13;12.27;;;;;;;6.05;100.00;101240.22;4985011;28;20039;-90
2023/04/09 02:41:18;;;;;;;22.30;12.32;;;;;;;6.13;100.00;101261.16;4975350;28;20043;-90
2023/04/09 02:43:45;;;;;;;18.52;12.02;;;;;;;6.05;100.00;101260.38;4980301;28;20043;-89
2023/04/09 02:46:12;;;;;;;17.30;10.90;;;;;;;5.39;100.00;101160.53;4997045;28;20070;-89
2023/04/09 02:48:40;;;;;;;21.63;12.43;;;;;;;5.65;100.00;101216.25;4980750;28;20063;-92
2023/04/09 02:51:11;;;;;;;20.48;12.00;;;;;;;5.87;100.00;101264.97;4996008;28;20038;-90
2023/04/09 02:53:39;;;;;;;20.07;12.10;;;;;;;5.72;100.00;101240.66;4996099;28;20027;-89
2023/04/09 02:56:06;;;;;;;18.42;11.40;;;;;;;5.57;100.00;101213.69;4981059;28;20038;-89
2023/04/09 02:58:33;;;;;;;21.00;12.35;;;;;;;5.82;100.00;101263.31;4990892;28;20058;-89
2023/04/09 03:01:01;;;;;;;21.23;12.40;;;;;;;5.64;100.00;101235.53;4994493;28;20066;-93
2023/04/09 03:03:31;;;;;;;18.83;12.25;;;;;;;5.54;100.00;101220.75;4963521;28;20035;-93
2023/04/09 03:05:57;;;;;;;20.58;12.00;;;;;;;5.74;100.00;101252.03;4979888;28;20095;-91
2023/04/09 03:08:24;;;;;;;18.83;12.10;;;;;;;5.69;100.00;101254.69;4976224;28;20053;-91
2023/04/09 03:10:51;;;;;;;21.33;12.15;;;;;;;5.45;100.00;101216.50;4977502;28;20059;-94
2023/04/09 03:13:18;;;;;;;20.58;12.57;;;;;;;5.29;100.00;101186.06;4960547;28;20043;-92
2023/04/09 03:15:44;;;;;;;21.85;13.57;;;;;;;5.47;100.00;101219.97;4967145;28;20114;-92
2023/04/09 03:18:12;;;;;;;20.55;12.65;;;;;;;5.45;100.00;101218.25;4970280;28;20043;-90
2023/04/09 03:20:41;;;;;;;21.45;12.15;;;;;;;5.58;100.00;101231.22;4975511;28;20047;-91
2023/04/09 03:23:14;;;;;;;19.60;12.48;;;;;;;5.19;100.00;101160.81;4991502;28;20059;-92
2023/04/09 03:25:41;;;;;;;22.13;13.05;;;;;;;5.62;100.00;101234.66;4963989;28;20562;-92
2023/04/09 03:28:08;;;;;;;19.42;12.48;;;;;;;5.36;100.00;101197.34;4989415;28;20051;-89
2023/04/09 03:30:34;;;;;;;19.77;12.85;;;;;;;5.59;100.00;101238.19;4986619;28;20599;-91
2023/04/09 03:33:01;;;;;;;21.70;12.55;;;;;;;5.50;100.00;101222.56;4983930;28;20056;-91
2023/04/09 03:35:28;;;;;;;20.13;12.43;;;;;;;5.44;100.00;101206.88;4982109;28;20038;-92
2023/04/09 03:37:55;;;;;;;22.10;12.75;;;;;;;5.23;100.00;101176.50;4981853;28;20047;-90
2023/04/09 03:40:22;;;;;;;20.40;12.57;;;;;;;5.31;100.00;101196.56;4968501;28;20440;-91
2023/04/09 03:42:52;;;;;;;21.40;12.77;;;;;;;5.06;100.00;101160.09;4985811;28;20061;-89
2023/04/09 03:45:19;;;;;;;20.77;12.63;;;;;;;5.34;100.00;101210.53;4994025;28;20066;-90
2023/04/09 03:47:46;;;;;;;23.20;14.07;;;;;;;5.48;100.00;101241.88;4976056;28;20043;-91
2023/04/09 03:50:13;;;;;;;22.90;13.32;;;;;;;5.46;100.00;101241.00;4988600;28;20141;-90
2023/04/09 03:52:41;;;;;;;22.50;12.82;;;;;;;5.26;100.00;101205.34;4989979;28;20081;-90
2023/04/09 03:55:10;;;;;;;23.33;13.50;;;;;;;4.89;100.00;101143.66;4985985;28;20038;-92
2023/04/09 03:57:37;;;;;;;24.20;13.17;;;;;;;5.43;100.00;101241.03;4965829;28;20111;-91
2023/04/09 04:00:05;;;;;;;20.48;13.35;;;;;;;5.01;100.00;101175.03;4982683;28;20042;-90
2023/04/09 04:02:35;;;;;;;22.80;13.15;;;;;;;5.12;100.00;101194.16;4980317;28;20044;-91
2023/04/09 04:05:03;;;;;;;20.65;12.57;;;;;;;5.40;100.00;101243.69;4986407;28;20050;-91
2023/04/09 04:07:31;;;;;;;24.55;13.25;;;;;;;5.37;100.00;101241.97;4988335;28;20091;-89
2023/04/09 04:09:58;;;;;;;20.83;13.38;;;;;;;5.35;100.00;101228.03;4984933;28;20106;-90
2023/04/09 04:12:26;;;;;;;22.33;13.45;;;;;;;5.13;100.00;101201.13;4972484;28;20047;-91
2023/04/09 04:14:59;;;;;;;22.42;12.73;;;;;;;5.31;100.00;101226.31;4984557;28;20050;-87
2023/04/09 04:17:27;;;;;;;25.38;14.07;;;;;;;5.36;100.00;101234.13;4990880;28;20029;-90
2023/04/09 04:19:54;;;;;;;22.70;12.48;;;;;;;5.05;100.00;101181.97;4987824;28;20106;-91
2023/04/09 04:22:22;;;;;;;22.05;13.20;;;;;;;5.09;100.00;101173.19;4983838;28;20303;-93
2023/04/09 04:24:52;;;;;;;23.83;12.98;;;;;;;5.28;100.00;101211.47;4985193;28;20215;-91
2023/04/09 04:27:18;;;;;;;22.35;13.05;;;;;;;5.28;100.00;101221.97;4966842;28;20046;-93
2023/04/09 04:29:45;;;;;;;21.58;13.70;;;;;;;5.04;100.00;101181.97;4959623;28;20051;-90
2023/04/09 04:32:12;;;;;;;22.05;12.55;;;;;;;5.36;100.00;101244.63;4962243;28;20051;-90
2023/04/09 04:34:42;;;;;;;22.15;13.20;;;;;;;5.19;100.00;101221.22;4977254;28;20138;-91
2023/04/09 04:37:09;;;;;;;23.10;13.73;;;;;;;4.93;100.00;101185.63;4970533;28;20074;-91
2023/04/09 04:39:35;;;;;;;23.25;13.68;;;;;;;5.25;100.00;101245.63;4960824;28;20352;-90
2023/04/09 04:42:03;;;;;;;23.23;13.70;;;;;;;4.94;100.00;101200.47;4976416;28;20043;-92
2023/04/09 04:44:30;;;;;;;23.88;13.80;;;;;;;5.20;100.00;101246.56;4963952;28;20073;-92
2023/04/09 04:46:57;;;;;;;24.63;14.43;;;;;;;4.73;100.00;101163.09;4980305;28;20074;-91
2023/04/09 04:49:33;;;;;;;22.73;13.35;;;;;;;4.88;100.00;101189.16;4983808;28;20027;-91
2023/04/09 04:52:00;;;;;;;23.17;14.02;;;;;;;4.92;100.00;101194.38;4955022;28;20039;-93
2023/04/09 04:54:27;;;;;;;24.90;13.93;;;;;;;5.12;100.00;101223.03;4960337;28;20166;-91
2023/04/09 04:56:55;;;;;;;25.20;13.50;;;;;;;5.33;100.00;101244.69;4988342;28;20059;-89
2023/04/09 04:59:22;;;;;;;22.23;13.55;;;;;;;5.28;100.00;101240.34;4976641;28;20482;-89
2023/04/09 05:01:48;;;;;;;24.70;13.85;;;;;;;5.32;100.00;101253.44;4976694;28;20039;-89
2023/04/09 05:04:15;;;;;;;25.25;14.55;;;;;;;5.36;100.00;101260.38;4975038;28;20149;-88
2023/04/09 05:06:43;;;;;;;26.02;14.65;;;;;;;5.33;100.00;101256.06;4989282;28;20043;-89
2023/04/09 05:09:10;;;;;;;24.75;14.25;;;;;;;5.37;100.00;101256.88;4988326;28;20053;-88
2023/04/09 05:11:36;;;;;;;24.40;14.23;;;;;;;5.10;100.00;101206.41;4977360;28;20031;-94
2023/04/09 05:14:05;;;;;;;24.02;13.73;;;;;;;5.34;100.00;101251.66;4966966;28;20047;-92
2023/04/09 05:16:31;;;;;;;23.17;14.00;;;;;;;5.46;100.00;101262.03;4963042;28;20053;-90
2023/04/09 05:18:58;;;;;;;26.42;15.13;;;;;;;4.86;100.00;101156.84;4968258;28;20043;-89
2023/04/09 05:21:26;;;;;;;26.30;14.93;;;;;;;5.24;100.00;101236.00;5033831;23;20058;-88
2023/04/09 05:23:53;;;;;;;25.55;14.95;;;;;;;5.27;100.00;101251.72;5034440;28;20037;-89
2023/04/09 05:26:37;;;;;;;27.80;15.15;;;;;;;5.28;100.00;101260.47;5035170;28;20102;-87
2023/04/09 05:29:08;;;;;;;26.05;14.57;;;;;;;5.33;100.00;101266.56;5045266;28;20018;-88
2023/04/09 05:31:35;;;;;;;27.08;15.00;;;;;;;5.37;100.00;101262.13;5010218;28;20076;-92
2023/04/09 05:34:03;;;;;;;27.83;15.40;;;;;;;5.15;100.00;101214.25;5037112;28;20128;-91
2023/04/09 05:36:34;;;;;;;24.45;13.82;;;;;;;5.22;100.00;101215.91;5008761;28;20126;-92
2023/04/09 05:39:07;;;;;;;27.52;14.10;;;;;;;5.09;100.00;101193.31;5006423;28;20046;-90
2023/04/09 05:41:40;;;;;;;26.58;14.68;;;;;;;5.36;100.00;101228.84;5007792;28;20130;-88
2023/04/09 05:44:07;;;;;;;;;;;;;;;5.67;100.00;101264.34;5027104;28;20128;-93
2023/04/09 05:46:37;;;;;;;24.23;13.90;;;;;;;5.40;100.00;101205.19;5004294;28;19956;-91
2023/04/09 05:49:04;;;;;;;25.25;14.73;;;;;;;5.54;100.00;101202.34;5021576;28;20038;-93
2023/04/09 05:51:30;;;;;;;25.40;15.23;;;;;;;5.85;100.00;101239.59;5000976;28;20065;-90
2023/04/09 05:53:58;;;;;;;26.15;14.68;;;;;;;5.90;100.00;101222.91;5010670;28;20089;-90
2023/04/09 05:56:26;;;;;;;26.98;14.73;;;;;;;6.30;100.00;101264.38;5044962;28;20037;-91
2023/04/09 05:58:57;;;;;;;22.40;13.73;;;;;;;5.96;100.00;101196.53;5020367;28;20088;-90
2023/04/09 06:01:28;;;;;;;27.70;16.13;;;;;;;5.96;100.00;101175.50;5026403;28;20038;-89
2023/04/09 06:03:55;;;;;;;25.85;14.93;;;;;;;6.58;100.00;101270.94;5024054;28;20050;-91
2023/04/09 06:06:24;;;;;;;24.73;14.55;;;;;;;6.56;100.00;101256.06;5003977;28;20096;-92
2023/04/09 06:08:50;;;;;;;26.05;14.90;;;;;;;6.45;100.00;101224.69;5010042;28;20073;-91
2023/04/09 06:11:17;;;;;;;23.63;14.75;;;;;;;6.64;100.00;101233.09;5042635;28;20101;-92
2023/04/09 06:13:45;;;;;;;23.23;14.02;;;;;;;6.87;100.00;101266.94;5015029;28;20041;-89
2023/04/09 06:18:56;;;;;;;24.77;14.63;;;;;;;6.84;100.00;101230.13;5182427;23;20056;-89
2023/04/09 06:21:23;;;;;;;22.90;13.95;;;;;;;7.20;100.00;101278.63;5029902;28;20033;-88
2023/04/09 06:23:52;;;;;;;24.20;14.80;;;;;;;7.24;100.00;101267.13;5028811;28;20069;-90
2023/04/09 06:26:20;;;;;;;26.30;15.93;;;;;;;7.21;100.00;101246.97;5034244;28;20057;-91
2023/04/09 06:28:51;;;;;;;25.73;13.98;;;;;;;7.26;100.00;101255.63;5016348;28;20073;-90
2023/04/09 06:31:20;;;;;;;23.95;13.93;;;;;;;7.44;100.00;101271.97;5026897;28;20045;-92
2023/04/09 06:33:47;;;;;;;25.23;14.48;;;;;;;7.46;100.00;101271.06;5044847;28;20049;-90
2023/04/09 06:36:14;;;;;;;24.40;14.55;;;;;;;7.21;100.00;101225.03;5040321;28;20049;-93
2023/04/09 06:38:41;;;;;;;23.92;14.00;;;;;;;7.62;100.00;101274.25;5018007;28;20051;-91
2023/04/09 06:41:10;;;;;;;25.45;14.00;;;;;;;7.62;100.00;101263.69;5015506;28;20053;-91
2023/04/09 06:43:37;;;;;;;26.88;15.05;;;;;;;7.42;100.00;101221.94;5028838;28;20040;-91
2023/04/09 06:46:07;;;;;;;22.83;13.85;;;;;;;7.62;100.00;101258.44;5018342;28;20052;-91
2023/04/09 06:48:37;;;;;;;23.33;14.27;;;;;;;7.85;100.00;101282.56;5005726;28;20088;-92
2023/04/09 06:51:06;;;;;;;23.07;14.50;;;;;;;7.94;100.00;101289.38;5047507;28;20048;-90
2023/04/09 06:53:36;;;;;;;;;;;;;;;8.01;100.00;101281.31;5042460;28;20535;-91
2023/04/09 06:56:04;;;;;;;22.65;13.70;;;;;;;8.14;100.00;101289.81;5047963;28;19943;-91
2023/04/09 06:58:30;;;;;;;23.95;14.48;;;;;;;8.18;100.00;101275.66;5044863;28;20358;-92
2023/04/09 07:01:01;;;;;;;24.48;14.75;;;;;;;8.36;100.00;101287.56;5045829;28;20454;-91
2023/04/09 07:03:28;;;;;;;25.25;14.98;;;;;;;8.24;100.00;101253.50;5034743;28;20048;-90
2023/04/09 07:05:59;;;;;;;24.17;14.82;;;;;;;8.14;100.00;101230.91;5048057;28;20099;-87
2023/04/09 07:08:42;;;;;;;24.13;14.50;;;;;;;8.45;100.00;101268.88;5069921;28;20041;-91
2023/04/09 07:11:15;;;;;;;23.73;15.32;;;;;;;8.73;100.00;101279.63;5042756;28;20037;-90
2023/04/09 07:13:42;;;;;;;24.05;15.20;;;;;;;8.83;100.00;101267.91;5064033;28;20049;-90
2023/04/09 07:16:09;;;;;;;23.15;14.88;;;;;;;9.04;100.00;101282.34;5039300;28;20087;-93
2023/04/09 07:18:37;;;;;;;20.95;13.63;;;;;;;9.00;100.00;101263.03;5053785;28;20064;-92
2023/04/09 07:21:04;;;;;;;25.08;15.35;;;;;;;9.09;100.00;101281.31;5033896;28;20048;-91
2023/04/09 07:23:35;;;;;;;21.25;14.05;;;;;;;9.06;100.00;101285.81;5021297;28;20099;-91
2023/04/09 07:26:05;;;;;;;26.27;15.70;;;;;;;8.93;100.00;101255.34;5037281;28;20067;-92
2023/04/09 07:28:32;;;;;;;24.67;15.25;;;;;;;9.06;100.00;101254.09;5059230;28;20112;-91
2023/04/09 07:31:03;;;;;;;22.85;14.82;;;;;;;9.20;100.00;101275.72;5025854;28;20099;-91
2023/04/09 07:33:34;;;;;;;25.73;15.65;;;;;;;9.07;100.00;101232.06;5054902;28;20671;-92
2023/04/09 07:36:01;;;;;;;23.45;15.20;;;;;;;9.42;100.00;101289.22;5033027;28;20051;-91
2023/04/09 07:38:30;;;;;;;24.73;15.18;;;;;;;9.38;100.00;101284.94;5033998;28;20068;-92
2023/04/09 07:40:58;;;;;;;22.90;14.73;;;;;;;9.14;100.00;101223.03;5033375;28;20103;-91
2023/04/09 07:43:24;;;;;;;25.48;15.52;;;;;;;9.54;100.00;101280.94;5033970;28;20091;-90
2023/04/09 07:45:53;;;;;;;24.40;15.43;;;;;;;9.28;100.00;101231.47;5039570;28;20120;-91
2023/04/09 07:48:21;;;;;;;21.65;13.93;;;;;;;9.30;100.00;101223.47;5036431;28;20485;-91
2023/04/09 07:50:48;;;;;;;24.95;15.13;;;;;;;9.87;100.00;101289.69;5015395;28;20087;-92
2023/04/09 07:53:18;;;;;;;24.73;15.07;;;;;;;9.84;100.00;101258.00;5035324;28;20034;-89
2023/04/09 07:55:46;;;;;;;23.55;15.25;;;;;;;9.99;100.00;101284.00;5028748;28;20049;-92
2023/04/09 07:58:15;;;;;;;24.05;15.52;;;;;;;10.24;100.00;101294.72;5038244;28;20045;-92
2023/04/09 08:00:44;;;;;;;24.90;15.57;;;;;;;10.33;100.00;101272.41;5038891;28;20068;-92
2023/04/09 08:03:11;;;;;;;23.27;15.18;;;;;;;10.72;100.00;101302.00;5021800;28;20045;-91
2023/04/09 08:05:39;;;;;;;22.73;15.23;;;;;;;10.98;95.82;101296.72;5050707;28;20049;-91
2023/04/09 08:08:06;;;;;;;24.40;15.57;;;;;;;11.06;91.66;101292.00;5035621;28;20042;-91
2023/04/09 08:10:32;;;;;;;22.90;15.32;;;;;;;11.21;87.42;101272.03;5035188;28;20075;-91
2023/04/09 08:13:01;;;;;;;23.45;15.40;;;;;;;11.37;86.62;101290.91;5035477;28;20042;-89
2023/04/09 08:15:28;;;;;;;22.85;15.07;;;;;;;11.32;85.85;101292.88;5060824;28;20051;-89
2023/04/09 08:17:55;;;;;;;23.75;16.52;;;;;;;11.22;86.70;101292.34;5050006;28;20048;-92
2023/04/09 08:20:22;;;;;;;23.33;15.55;;;;;;;11.34;84.07;101293.69;5024689;28;20068;-90
2023/04/09 08:22:52;;;;;;;22.92;15.32;;;;;;;11.30;81.93;101282.34;5021645;28;20076;-90
2023/04/09 08:25:19;;;;;;;22.92;15.90;;;;;;;11.51;78.35;101300.09;5013123;28;20601;-90
2023/04/09 08:27:46;;;;;;;27.02;16.40;;;;;;;11.51;76.56;101280.66;5020823;28;20094;-91
2023/04/09 08:30:13;;;;;;;23.90;16.25;;;;;;;11.62;75.40;101288.25;5026833;28;20135;-90
2023/04/09 08:32:43;;;;;;;24.83;16.35;;;;;;;11.80;72.92;101317.66;5033410;28;20053;-91
2023/04/09 08:35:12;;;;;;;23.50;15.77;;;;;;;11.60;72.11;101257.34;5056960;28;20049;-89
2023/04/09 08:37:38;;;;;;;22.40;15.45;;;;;;;12.14;71.28;101311.03;5047596;28;20059;-90
2023/04/09 08:40:07;;;;;;;21.95;16.25;;;;;;;12.19;68.40;101288.72;5060995;28;20080;-91
2023/04/09 08:42:44;;;;;;;20.80;14.73;;;;;;;12.58;68.50;101310.16;5038046;28;20040;-90
2023/04/09 08:45:15;;;;;;;21.23;15.25;;;;;;;12.45;66.85;101285.00;5047370;28;20047;-90
2023/04/09 08:47:48;;;;;;;21.48;15.10;;;;;;;12.61;66.78;101298.53;5047962;28;20051;-89
2023/04/09 08:50:16;;;;;;;22.40;15.80;;;;;;;12.63;65.46;101317.94;5063693;28;20052;-90
2023/04/09 08:52:47;;;;;;;23.58;15.80;;;;;;;12.38;66.79;101303.91;5052107;28;20065;-90
2023/04/09 08:55:15;;;;;;;22.48;15.35;;;;;;;12.25;66.25;101303.53;5048944;28;20458;-91
2023/04/09 08:57:47;;;;;;;26.02;16.92;;;;;;;12.35;67.47;101322.63;5053523;28;20100;-92
2023/04/09 09:00:14;;;;;;;22.20;15.35;;;;;;;12.05;68.40;101267.16;5033559;28;20046;-92
2023/04/09 09:03:03;;;;;;;23.63;15.50;;;;;;;12.50;67.19;101309.59;5025712;28;20042;-93
2023/04/09 09:05:43;;;;;;;21.83;15.43;;;;;;;12.47;65.31;101300.88;5030974;28;20045;-90
2023/04/09 09:08:24;;;;;;;20.48;14.90;;;;;;;12.69;66.37;101317.69;5051172;28;20041;-92
2023/04/09 09:10:53;;;;;;;21.42;14.68;;;;;;;12.57;64.62;101263.25;5063484;28;20038;-91
2023/04/09 09:13:24;;;;;;;19.83;14.65;;;;;;;12.56;65.67;101250.91;5030280;28;20496;-91
2023/04/09 09:16:14;;;;;;;20.30;14.82;;;;;;;12.82;62.72;101280.81;5043284;28;20077;-93
2023/04/09 09:18:43;;;;;;;21.27;13.63;;;;;;;13.00;63.34;101303.97;5017326;28;20447;-93
2023/04/09 09:21:16;;;;;;;18.17;13.55;;;;;;;13.17;63.13;101308.63;5041138;28;20049;-92
2023/04/09 09:23:44;;;;;;;20.17;13.45;;;;;;;13.23;61.51;101308.31;5047078;28;20049;-90
2023/04/09 09:26:19;;;;;;;19.42;14.13;;;;;;;12.83;61.12;101258.63;5036278;28;20037;-91
2023/04/09 09:28:47;;;;;;;19.63;14.32;;;;;;;13.06;62.64;101310.84;5019604;28;20041;-91
2023/04/09 09:31:19;;;;;;;20.40;14.57;;;;;;;13.06;62.03;101310.84;5023966;28;20566;-91
2023/04/09 09:33:48;;;;;;;17.03;13.20;;;;;;;12.79;62.46;101265.00;5020421;28;20109;-90
2023/04/09 09:36:15;;;;;;;20.73;14.55;;;;;;;13.15;60.91;101314.00;5027469;28;20057;-91
2023/04/09 09:38:52;;;;;;;19.35;13.80;;;;;;;13.30;61.29;101308.00;5029951;28;20041;-91
2023/04/09 09:41:20;;;;;;;17.77;13.63;;;;;;;13.13;61.58;101296.34;5019714;28;20069;-91
2023/04/09 09:43:50;;;;;;;19.27;12.70;;;;;;;13.30;61.53;101309.81;5033194;28;20077;-91
2023/04/09 09:46:16;;;;;;;16.48;12.38;;;;;;;13.57;59.18;101311.22;5038899;28;20050;-91
2023/04/09 09:48:46;;;;;;;14.63;11.65;;;;;;;13.63;58.77;101310.97;5061253;28;20439;-90
2023/04/09 09:51:15;;;;;;;16.08;11.98;;;;;;;13.58;57.71;101291.69;5043393;28;20059;-90
2023/04/09 09:53:49;;;;;;;15.73;11.30;;;;;;;13.80;57.93;101290.72;5031389;28;20041;-90
2023/04/09 09:56:33;;;;;;;16.55;12.32;;;;;;;13.97;56.15;101304.97;5046489;28;20041;-90
2023/04/09 09:59:18;;;;;;;14.98;11.57;;;;;;;13.74;57.53;101312.28;5053297;28;20519;-88
2023/04/09 10:01:46;;;;;;;15.35;11.95;;;;;;;13.65;56.11;101261.19;5057237;23;20047;-91
2023/04/09 10:04:15;;;;;;;15.43;11.90;;;;;;;13.87;55.88;101292.13;5008879;28;20047;-91
2023/04/09 10:06:47;;;;;;;17.77;12.35;;;;;;;13.89;56.51;101261.84;4998513;28;20049;-94
2023/04/09 10:09:17;;;;;;;16.30;12.45;;;;;;;14.28;55.89;101288.41;5020265;28;20038;-91
2023/04/09 10:11:47;;;;;;;17.77;13.05;;;;;;;14.44;54.79;101287.69;5003414;28;20187;-91
2023/04/09 10:14:27;;;;;;;18.23;13.20;;;;;;;13.91;56.23;101288.41;5009646;28;20026;-92
2023/04/09 10:16:54;;;;;;;17.85;13.10;;;;;;;13.41;57.46;101282.72;5013775;28;20053;-92
2023/04/09 10:19:21;;;;;;;18.20;13.10;;;;;;;13.08;59.03;101277.91;5007061;28;20113;-93
2023/04/09 10:21:58;;;;;;;17.02;12.10;;;;;;;12.98;60.06;101274.78;4991149;28;20049;-90
2023/04/09 10:24:25;;;;;;;15.63;11.95;;;;;;;13.08;59.69;101282.38;5012399;28;20072;-91
2023/04/09 10:27:12;;;;;;;17.83;12.07;;;;;;;13.19;58.90;101265.06;4990551;28;20042;-92
2023/04/09 10:29:44;;;;;;;16.50;12.27;;;;;;;13.02;59.57;101275.53;4996168;28;20137;-92
2023/04/09 10:32:19;;;;;;;16.75;13.27;;;;;;;12.73;60.19;101231.59;5022142;28;20087;-91
2023/04/09 10:34:48;;;;;;;19.58;12.93;;;;;;;12.72;60.31;101239.63;4999436;28;20045;-90
2023/04/09 10:37:27;;;;;;;18.20;12.40;;;;;;;12.82;61.13;101284.34;5013481;28;20045;-90
2023/04/09 10:39:55;;;;;;;18.48;13.65;;;;;;;12.85;60.88;101257.66;5013063;28;20034;-91
2023/04/09 10:42:40;;;;;;;17.30;12.90;;;;;;;13.16;59.35;101256.34;5021225;28;20098;-90
2023/04/09 10:45:15;;;;;;;13.48;10.95;;;;;;;13.48;56.07;101276.22;5001647;28;20045;-93
2023/04/09 10:47:42;;;;;;;14.13;10.63;;;;;;;13.39;56.41;101242.88;5005971;28;20094;-92
2023/04/09 10:50:24;;;;;;;15.55;12.05;;;;;;;13.15;56.20;101236.88;5002215;28;20034;-90
2023/04/09 10:52:53;;;;;;;16.42;12.05;;;;;;;12.89;57.21;101231.81;5014604;28;20057;-89
2023/04/09 10:55:40;;;;;;;17.27;12.38;;;;;;;12.85;58.54;101249.69;5001566;28;20046;-90
2023/04/09 10:58:12;;;;;;;16.38;11.85;;;;;;;12.64;58.27;101264.72;5015076;28;20034;-89
2023/04/09 11:00:42;;;;;;;15.32;11.23;;;;;;;12.17;59.06;101221.50;5019379;28;20046;-89
2023/04/09 11:03:43;;;;;;;14.23;10.80;;;;;;;12.54;59.48;101271.34;5025099;28;20054;-89
2023/04/09 11:06:23;;;;;;;15.05;10.90;;;;;;;12.34;58.15;101186.31;4998208;28;20038;-90
2023/04/09 11:08:50;;;;;;;16.15;11.93;;;;;;;12.89;57.94;101243.31;5024506;28;20054;-90
2023/04/09 11:11:24;;;;;;;13.52;10.48;;;;;;;13.14;57.13;101260.84;5018277;28;20034;-90
2023/04/09 11:13:50;;;;;;;14.25;10.38;;;;;;;13.22;55.65;101261.41;4999503;28;20034;-90
2023/04/09 11:16:19;;;;;;;11.30;9.38;;;;;;;13.04;55.48;101219.63;5006815;28;20053;-92
2023/04/09 11:18:54;;;;;;;12.30;9.57;;;;;;;13.25;53.40;101232.00;4981952;28;20042;-92
2023/04/09 11:21:30;;;;;;;12.73;10.02;;;;;;;13.53;53.01;101253.78;5004264;28;20042;-93
2023/04/09 11:24:01;;;;;;;11.75;9.73;;;;;;;13.83;51.56;101251.50;4987641;28;20054;-92
2023/04/09 11:26:35;;;;;;;12.43;9.00;;;;;;;14.06;49.64;101245.06;5021690;28;20068;-92